Time;durP1;ratioP1;P1;durP2;ratioP2;P2;SDS_P1;SDS_P2;PMS_P1;PMS_P2;Temp;Humidity;BMP_temperature;BMP_pressure;BME280_temperature;BME280_humidity;BME280_pressure;Samples;Min_cycle;Max_cycle;Signal;HPM_P1;HPM_P2
2024/01/27 00:02:02;;;;;;;36.72;6.20;;;;;;;;;;4987403;28;20065;-64
2024/01/27 00:04:28;;;;;;;31.10;6.47;;;;;;;;;;4999576;28;20054;-65
2024/01/27 00:06:54;;;;;;;36.30;5.07;;;;;;;;;;4997908;28;20065;-64
2024/01/27 00:09:20;;;;;;;34.38;5.43;;;;;;;;;;4990066;28;20053;-64
2024/01/27 00:11:47;;;;;;;30.98;4.00;;;;;;;;;;5003242;28;20374;-64
2024/01/27 00:14:13;;;;;;;24.58;5.07;;;;;;;;;;5005947;28;20094;-64
2024/01/27 00:16:39;;;;;;;45.90;8.40;;;;;;;;;;4990265;28;20145;-65
2024/01/27 00:19:06;;;;;;;27.20;3.65;;;;;;;;;;5003855;28;20099;-64
2024/01/27 00:21:32;;;;;;;26.23;3.95;;;;;;;;;;5006044;28;20041;-64
2024/01/27 00:24:00;;;;;;;30.15;4.50;;;;;;;;;;5007097;28;20038;-64
2024/01/27 00:26:27;;;;;;;31.25;4.90;;;;;;;;;;5005949;28;20045;-64
2024/01/27 00:28:54;;;;;;;27.55;4.15;;;;;;;;;;4993178;28;20088;-65
2024/01/27 00:31:20;;;;;;;34.15;4.45;;;;;;;;;;4988160;28;20155;-64
2024/01/27 00:33:46;;;;;;;34.60;4.25;;;;;;;;;;4980991;28;20038;-65
2024/01/27 00:36:12;;;;;;;35.85;4.22;;;;;;;;;;4985986;28;20049;-64
2024/01/27 00:38:38;;;;;;;36.30;4.53;;;;;;;;;;4996413;28;20034;-64
2024/01/27 00:41:05;;;;;;;34.80;3.85;;;;;;;;;;4983970;28;20046;-64
2024/01/27 00:43:31;;;;;;;27.73;4.28;;;;;;;;;;4984639;28;20042;-64
2024/01/27 00:45:57;;;;;;;27.80;3.97;;;;;;;;;;4989968;28;21366;-65
2024/01/27 00:48:23;;;;;;;31.60;4.57;;;;;;;;;;4996355;28;20124;-64
2024/01/27 00:50:50;;;;;;;36.15;5.10;;;;;;;;;;5008601;28;20418;-64
2024/01/27 00:53:16;;;;;;;32.35;4.85;;;;;;;;;;5008406;28;20082;-64
2024/01/27 00:55:42;;;;;;;22.92;3.60;;;;;;;;;;5009272;28;20128;-64
2024/01/27 00:58:09;;;;;;;33.58;5.00;;;;;;;;;;5008452;28;20041;-64
2024/01/27 01:00:35;;;;;;;37.10;5.40;;;;;;;;;;5007880;28;20043;-64
2024/01/27 01:03:01;;;;;;;30.50;3.75;;;;;;;;;;4995228;28;20188;-64
2024/01/27 01:05:28;;;;;;;24.60;3.92;;;;;;;;;;4997369;28;20136;-64
2024/01/27 01:07:54;;;;;;;23.67;3.72;;;;;;;;;;4984482;28;20050;-64
2024/01/27 01:10:20;;;;;;;21.67;3.13;;;;;;;;;;4975633;28;20374;-64
2024/01/27 01:12:46;;;;;;;43.83;6.28;;;;;;;;;;4964742;28;20133;-65
2024/01/27 01:15:13;;;;;;;24.95;4.93;;;;;;;;;;4998854;28;20405;-64
2024/01/27 01:17:39;;;;;;;30.08;3.63;;;;;;;;;;5001062;28;20645;-64
2024/01/27 01:20:05;;;;;;;36.05;4.53;;;;;;;;;;5005690;28;20042;-64
2024/01/27 01:22:31;;;;;;;21.17;3.50;;;;;;;;;;5004554;28;20042;-64
2024/01/27 01:24:58;;;;;;;31.05;4.13;;;;;;;;;;5006769;28;20453;-65
2024/01/27 01:27:24;;;;;;;31.88;6.05;;;;;;;;;;5006906;28;20038;-65
2024/01/27 01:29:50;;;;;;;28.73;4.03;;;;;;;;;;5006991;28;20063;-64
2024/01/27 01:32:16;;;;;;;21.98;4.30;;;;;;;;;;5004712;28;20502;-64
2024/01/27 01:34:43;;;;;;;24.45;3.22;;;;;;;;;;4988778;28;20049;-64
2024/01/27 01:37:09;;;;;;;23.48;3.47;;;;;;;;;;4997345;28;20427;-64
2024/01/27 01:39:35;;;;;;;35.03;4.45;;;;;;;;;;5000006;28;20140;-65
2024/01/27 01:42:01;;;;;;;23.98;2.95;;;;;;;;;;4988603;28;20410;-64
2024/01/27 01:44:30;;;;;;;22.20;3.45;;;;;;;;;;4997150;28;20410;-64
2024/01/27 01:46:57;;;;;;;32.33;3.60;;;;;;;;;;4984755;28;20077;-64
2024/01/27 01:49:23;;;;;;;28.73;3.53;;;;;;;;;;4981962;28;20057;-64
2024/01/27 01:51:49;;;;;;;31.00;3.33;;;;;;;;;;4999351;28;20060;-64
2024/01/27 01:54:16;;;;;;;23.63;3.53;;;;;;;;;;4997938;28;20053;-64
2024/01/27 01:56:43;;;;;;;25.52;4.40;;;;;;;;;;4988263;28;20050;-64
2024/01/27 01:59:09;;;;;;;30.42;3.80;;;;;;;;;;4997135;28;20082;-64
2024/01/27 02:01:35;;;;;;;30.65;5.00;;;;;;;;;;5000607;28;20060;-64
2024/01/27 02:04:01;;;;;;;28.50;5.35;;;;;;;;;;4991510;28;20062;-65
2024/01/27 02:06:27;;;;;;;30.65;3.78;;;;;;;;;;4986756;28;20096;-64
2024/01/27 02:08:53;;;;;;;25.13;6.13;;;;;;;;;;5000071;28;20060;-64
2024/01/27 02:11:20;;;;;;;36.22;5.10;;;;;;;;;;5003661;28;20355;-65
2024/01/27 02:13:47;;;;;;;43.67;7.43;;;;;;;;;;5005627;28;20050;-64
2024/01/27 02:16:13;;;;;;;38.72;5.47;;;;;;;;;;4994608;28;20057;-64
2024/01/27 02:18:40;;;;;;;34.63;4.43;;;;;;;;;;4988548;28;20117;-65
2024/01/27 02:21:06;;;;;;;41.22;4.88;;;;;;;;;;5004394;28;20493;-65
2024/01/27 02:23:32;;;;;;;26.23;4.25;;;;;;;;;;4992608;28;20050;-65
2024/01/27 02:25:58;;;;;;;28.55;4.03;;;;;;;;;;4991249;28;20108;-64
2024/01/27 02:28:25;;;;;;;30.90;3.95;;;;;;;;;;5005044;28;20369;-64
2024/01/27 02:30:51;;;;;;;35.65;6.75;;;;;;;;;;5007579;28;20078;-64
2024/01/27 02:33:17;;;;;;;29.52;4.45;;;;;;;;;;4991567;28;20128;-65
2024/01/27 02:35:44;;;;;;;24.88;3.55;;;;;;;;;;4993676;28;20477;-65
2024/01/27 02:38:10;;;;;;;24.00;3.28;;;;;;;;;;5011312;28;20521;-64
2024/01/27 02:40:37;;;;;;;23.48;4.15;;;;;;;;;;4988580;28;20157;-65
2024/01/27 02:43:03;;;;;;;23.50;4.72;;;;;;;;;;4993813;28;20056;-64
2024/01/27 02:45:29;;;;;;;28.63;5.30;;;;;;;;;;4987924;28;20126;-64
2024/01/27 02:47:55;;;;;;;23.42;3.22;;;;;;;;;;4976987;28;20084;-64
2024/01/27 02:50:22;;;;;;;22.67;5.25;;;;;;;;;;4998009;28;20062;-64
2024/01/27 02:52:48;;;;;;;26.63;4.32;;;;;;;;;;4980917;28;20101;-64
2024/01/27 02:55:14;;;;;;;25.45;3.95;;;;;;;;;;4992120;28;20096;-64
2024/01/27 02:57:41;;;;;;;25.40;3.33;;;;;;;;;;4992891;28;20077;-64
2024/01/27 03:00:08;;;;;;;33.85;4.22;;;;;;;;;;4998619;28;20483;-64
2024/01/27 03:02:34;;;;;;;20.98;4.63;;;;;;;;;;4989448;28;20156;-64
2024/01/27 03:05:01;;;;;;;21.48;3.00;;;;;;;;;;5006356;28;20037;-64
2024/01/27 03:07:27;;;;;;;26.75;3.97;;;;;;;;;;5006673;28;20053;-64
2024/01/27 03:09:53;;;;;;;27.83;3.70;;;;;;;;;;4992510;28;20056;-64
2024/01/27 03:12:19;;;;;;;25.25;3.80;;;;;;;;;;4993664;28;20056;-64
2024/01/27 03:14:48;;;;;;;16.73;4.05;;;;;;;;;;5009041;28;20199;-64
2024/01/27 03:17:14;;;;;;;28.10;3.78;;;;;;;;;;4997466;28;20061;-64
2024/01/27 03:19:40;;;;;;;22.67;4.00;;;;;;;;;;4987707;28;20038;-64
2024/01/27 03:22:06;;;;;;;29.52;4.90;;;;;;;;;;4992970;28;20050;-64
2024/01/27 03:24:32;;;;;;;29.25;4.18;;;;;;;;;;4993255;28;20047;-64
2024/01/27 03:26:59;;;;;;;32.50;3.95;;;;;;;;;;4994700;28;20161;-64
2024/01/27 03:29:25;;;;;;;25.77;4.03;;;;;;;;;;4992920;28;20054;-64
2024/01/27 03:31:51;;;;;;;20.23;3.13;;;;;;;;;;4985665;28;20554;-64
2024/01/27 03:34:19;;;;;;;27.58;3.85;;;;;;;;;;4979768;28;20057;-64
2024/01/27 03:36:48;;;;;;;34.88;3.72;;;;;;;;;;4984744;28;20129;-65
2024/01/27 03:39:15;;;;;;;27.77;4.22;;;;;;;;;;4987005;28;20129;-65
2024/01/27 03:41:41;;;;;;;23.98;3.95;;;;;;;;;;5001395;28;20132;-64
2024/01/27 03:44:07;;;;;;;24.67;3.30;;;;;;;;;;4998303;28;20069;-64
2024/01/27 03:46:33;;;;;;;25.40;3.80;;;;;;;;;;4991933;28;20053;-64
2024/01/27 03:49:00;;;;;;;30.60;7.78;;;;;;;;;;4985006;28;20096;-64
2024/01/27 03:51:26;;;;;;;26.35;4.53;;;;;;;;;;4993114;28;20057;-64
2024/01/27 03:53:52;;;;;;;32.53;5.43;;;;;;;;;;5001545;28;20038;-64
2024/01/27 03:56:18;;;;;;;27.25;3.97;;;;;;;;;;4998180;28;20050;-64
2024/01/27 03:58:44;;;;;;;30.50;3.88;;;;;;;;;;4985391;28;20086;-64
2024/01/27 04:01:11;;;;;;;32.90;4.40;;;;;;;;;;5002138;28;20114;-64
2024/01/27 04:03:37;;;;;;;33.45;3.88;;;;;;;;;;4989984;28;20049;-64
2024/01/27 04:06:03;;;;;;;21.10;3.90;;;;;;;;;;4986437;28;20151;-64
2024/01/27 04:08:31;;;;;;;28.50;3.90;;;;;;;;;;5000851;28;20049;-65
2024/01/27 04:10:57;;;;;;;22.27;4.53;;;;;;;;;;4999757;28;20046;-64
2024/01/27 04:13:23;;;;;;;26.45;3.47;;;;;;;;;;4988292;28;20057;-64
2024/01/27 04:15:51;;;;;;;22.95;3.17;;;;;;;;;;5000296;28;20132;-64
2024/01/27 04:18:17;;;;;;;24.38;3.88;;;;;;;;;;4998636;28;20676;-64
2024/01/27 04:20:45;;;;;;;29.95;3.92;;;;;;;;;;4987688;28;20546;-64
2024/01/27 04:23:11;;;;;;;31.55;3.55;;;;;;;;;;4989136;28;20050;-64
2024/01/27 04:25:37;;;;;;;28.15;4.00;;;;;;;;;;4988458;28;20260;-64
2024/01/27 04:28:04;;;;;;;26.13;3.97;;;;;;;;;;4997094;28;21248;-64
2024/01/27 04:30:30;;;;;;;35.10;5.50;;;;;;;;;;5007808;28;20191;-65
2024/01/27 04:32:56;;;;;;;25.58;4.55;;;;;;;;;;4991174;28;20540;-65
2024/01/27 04:35:22;;;;;;;34.40;4.47;;;;;;;;;;5010122;28;20496;-64
2024/01/27 04:37:48;;;;;;;24.80;4.18;;;;;;;;;;5014355;28;20045;-64
2024/01/27 04:40:15;;;;;;;27.70;4.18;;;;;;;;;;5008950;28;20037;-64
2024/01/27 04:42:42;;;;;;;32.47;3.90;;;;;;;;;;5013965;28;20043;-64
2024/01/27 04:45:08;;;;;;;27.02;4.57;;;;;;;;;;4995748;28;20054;-64
2024/01/27 04:47:34;;;;;;;22.20;4.40;;;;;;;;;;4990854;28;20610;-64
2024/01/27 04:50:01;;;;;;;25.30;3.88;;;;;;;;;;4993056;28;20065;-64
2024/01/27 04:52:27;;;;;;;25.38;2.92;;;;;;;;;;5000166;28;20064;-64
2024/01/27 04:54:53;;;;;;;27.98;4.97;;;;;;;;;;4988689;28;20149;-64
2024/01/27 04:57:19;;;;;;;28.27;4.65;;;;;;;;;;4989973;28;20485;-64
2024/01/27 04:59:45;;;;;;;25.25;4.25;;;;;;;;;;4996161;28;20075;-64
2024/01/27 05:02:12;;;;;;;26.95;4.05;;;;;;;;;;4984066;28;20057;-64
2024/01/27 05:04:38;;;;;;;19.95;3.00;;;;;;;;;;4986457;28;20172;-64
2024/01/27 05:07:05;;;;;;;30.10;3.78;;;;;;;;;;4981106;28;20176;-64
2024/01/27 05:09:31;;;;;;;36.85;4.03;;;;;;;;;;4979673;28;20552;-64
2024/01/27 05:11:57;;;;;;;28.67;3.83;;;;;;;;;;4989010;28;20053;-64
2024/01/27 05:14:23;;;;;;;33.65;4.03;;;;;;;;;;4998796;28;20125;-64
2024/01/27 05:16:50;;;;;;;32.85;3.35;;;;;;;;;;5000950;28;20846;-64
2024/01/27 05:19:17;;;;;;;31.80;3.72;;;;;;;;;;5005888;28;20033;-64
2024/01/27 05:21:44;;;;;;;21.40;2.92;;;;;;;;;;4998792;28;20050;-65
2024/01/27 05:24:10;;;;;;;37.50;6.22;;;;;;;;;;5004303;28;20044;-64
2024/01/27 05:26:36;;;;;;;32.72;3.95;;;;;;;;;;5008053;28;20102;-65
2024/01/27 05:29:02;;;;;;;30.58;3.90;;;;;;;;;;4996225;28;20037;-65
2024/01/27 05:31:29;;;;;;;27.67;3.60;;;;;;;;;;5009676;28;20151;-64
2024/01/27 05:33:55;;;;;;;29.42;3.47;;;;;;;;;;4995521;28;20376;-65
2024/01/27 05:36:21;;;;;;;26.17;3.63;;;;;;;;;;4995144;28;20046;-66
2024/01/27 05:38:47;;;;;;;30.05;4.80;;;;;;;;;;4996297;28;20057;-65
2024/01/27 05:41:14;;;;;;;23.67;3.03;;;;;;;;;;4983329;28;20061;-64
2024/01/27 05:43:41;;;;;;;22.75;4.05;;;;;;;;;;4992891;28;20121;-64
2024/01/27 05:46:09;;;;;;;20.48;3.20;;;;;;;;;;4997214;28;20073;-64
2024/01/27 05:48:36;;;;;;;26.50;4.30;;;;;;;;;;4995662;28;20129;-64
2024/01/27 05:51:02;;;;;;;24.80;3.40;;;;;;;;;;4999937;28;20132;-64
2024/01/27 05:53:28;;;;;;;25.17;3.50;;;;;;;;;;4995560;28;20168;-64
2024/01/27 05:55:54;;;;;;;35.30;3.95;;;;;;;;;;4995996;28;20046;-64
2024/01/27 05:58:21;;;;;;;26.23;3.60;;;;;;;;;;4995437;28;20076;-64
2024/01/27 06:00:47;;;;;;;31.10;4.05;;;;;;;;;;4995493;28;20057;-64
2024/01/27 06:03:14;;;;;;;34.30;3.75;;;;;;;;;;5010893;28;20131;-64
2024/01/27 06:05:42;;;;;;;18.95;3.78;;;;;;;;;;5005090;28;20084;-64
2024/01/27 06:08:08;;;;;;;23.33;3.50;;;;;;;;;;4991608;28;20061;-64
2024/01/27 06:10:36;;;;;;;16.77;3.30;;;;;;;;;;5003069;28;20038;-64
2024/01/27 06:13:03;;;;;;;23.85;2.97;;;;;;;;;;5007468;28;20121;-64
2024/01/27 06:15:29;;;;;;;34.85;4.05;;;;;;;;;;5007801;28;20065;-64
2024/01/27 06:17:56;;;;;;;23.10;3.33;;;;;;;;;;5007590;28;20038;-64
2024/01/27 06:20:22;;;;;;;20.33;3.83;;;;;;;;;;4990384;28;20402;-64
2024/01/27 06:22:48;;;;;;;29.02;5.38;;;;;;;;;;5011282;28;20129;-65
2024/01/27 06:25:16;;;;;;;24.40;4.10;;;;;;;;;;4996413;28;20055;-64
2024/01/27 06:27:42;;;;;;;31.23;6.55;;;;;;;;;;5009802;28;20540;-65
2024/01/27 06:30:10;;;;;;;27.13;3.50;;;;;;;;;;4978933;28;1178651;-65
2024/01/27 06:32:36;;;;;;;19.23;3.03;;;;;;;;;;5003749;28;20081;-66
2024/01/27 06:35:02;;;;;;;40.38;5.20;;;;;;;;;;4992782;28;20133;-65
2024/01/27 06:37:29;;;;;;;33.25;4.43;;;;;;;;;;4988254;28;20037;-65
2024/01/27 06:39:55;;;;;;;25.45;3.28;;;;;;;;;;4984492;28;20104;-64
2024/01/27 06:42:21;;;;;;;21.88;4.03;;;;;;;;;;4996209;28;20430;-65
2024/01/27 06:44:47;;;;;;;30.30;4.85;;;;;;;;;;4995140;28;20079;-65
2024/01/27 06:47:14;;;;;;;25.48;3.05;;;;;;;;;;4991586;28;20496;-65
2024/01/27 06:49:40;;;;;;;19.10;3.40;;;;;;;;;;4994979;28;20050;-65
2024/01/27 06:52:07;;;;;;;28.17;4.00;;;;;;;;;;5007591;28;20093;-65
2024/01/27 06:54:33;;;;;;;29.02;3.67;;;;;;;;;;5007033;28;20101;-65
2024/01/27 06:57:00;;;;;;;24.65;4.32;;;;;;;;;;5003447;28;20038;-65
2024/01/27 06:59:27;;;;;;;34.63;4.95;;;;;;;;;;4992535;28;20092;-66
2024/01/27 07:01:53;;;;;;;26.45;3.28;;;;;;;;;;4988735;28;20049;-65
2024/01/27 07:04:19;;;;;;;29.38;4.15;;;;;;;;;;4996791;28;20496;-65
2024/01/27 07:06:45;;;;;;;25.75;4.60;;;;;;;;;;5004604;28;20049;-65
2024/01/27 07:09:12;;;;;;;37.92;4.38;;;;;;;;;;4991481;28;20042;-65
2024/01/27 07:11:38;;;;;;;23.00;4.13;;;;;;;;;;4986875;28;20060;-65
2024/01/27 07:14:06;;;;;;;30.83;4.35;;;;;;;;;;5001668;28;20039;-65
2024/01/27 07:16:33;;;;;;;25.77;4.22;;;;;;;;;;4997915;28;20518;-65
2024/01/27 07:19:00;;;;;;;26.45;4.40;;;;;;;;;;5006323;28;20049;-65
2024/01/27 07:21:28;;;;;;;25.02;4.05;;;;;;;;;;5000960;28;20460;-65
2024/01/27 07:23:55;;;;;;;27.27;3.50;;;;;;;;;;5001396;28;20046;-66
2024/01/27 07:26:21;;;;;;;34.67;4.68;;;;;;;;;;5000844;28;20053;-66
2024/01/27 07:28:47;;;;;;;25.25;5.43;;;;;;;;;;4997957;28;20122;-67
2024/01/27 07:31:14;;;;;;;27.13;3.83;;;;;;;;;;4966033;28;20069;-67
2024/01/27 07:33:41;;;;;;;29.83;3.22;;;;;;;;;;4976476;28;20466;-67
2024/01/27 07:36:07;;;;;;;32.20;5.00;;;;;;;;;;4994372;28;20041;-68
2024/01/27 07:38:33;;;;;;;28.42;4.50;;;;;;;;;;4974649;28;20446;-68
2024/01/27 07:40:59;;;;;;;35.92;6.00;;;;;;;;;;4982779;28;20030;-67
2024/01/27 07:43:27;;;;;;;38.42;6.18;;;;;;;;;;4991636;28;20724;-67
2024/01/27 07:45:54;;;;;;;24.15;4.05;;;;;;;;;;4994041;28;20458;-68
2024/01/27 07:48:20;;;;;;;31.40;4.45;;;;;;;;;;4986055;28;20086;-68
2024/01/27 07:50:48;;;;;;;24.42;3.50;;;;;;;;;;4991572;28;20042;-67
2024/01/27 07:53:15;;;;;;;37.92;3.72;;;;;;;;;;4991562;28;20053;-67
2024/01/27 07:55:41;;;;;;;37.67;5.13;;;;;;;;;;4997968;28;20074;-67
2024/01/27 07:58:07;;;;;;;33.85;4.40;;;;;;;;;;4982110;28;20374;-67
2024/01/27 08:00:33;;;;;;;27.60;4.20;;;;;;;;;;4976578;28;20045;-67
2024/01/27 08:03:00;;;;;;;28.45;4.43;;;;;;;;;;4996424;28;20095;-67
2024/01/27 08:05:26;;;;;;;27.13;4.13;;;;;;;;;;4995909;28;20095;-67
2024/01/27 08:07:53;;;;;;;19.40;3.10;;;;;;;;;;4983837;28;20046;-68
2024/01/27 08:10:19;;;;;;;27.65;4.03;;;;;;;;;;4993133;28;20054;-67
2024/01/27 08:12:45;;;;;;;25.02;4.18;;;;;;;;;;4979666;28;20207;-67
2024/01/27 08:15:12;;;;;;;31.33;4.25;;;;;;;;;;4984555;28;20486;-67
2024/01/27 08:17:38;;;;;;;30.88;3.65;;;;;;;;;;4988323;28;20070;-67
2024/01/27 08:20:05;;;;;;;36.15;4.68;;;;;;;;;;4985802;28;20118;-71
2024/01/27 08:22:31;;;;;;;30.08;5.85;;;;;;;;;;4983520;28;20038;-67
2024/01/27 08:24:57;;;;;;;27.70;3.72;;;;;;;;;;4990548;28;20046;-67
2024/01/27 08:27:23;;;;;;;24.40;4.30;;;;;;;;;;4969156;28;20042;-67
2024/01/27 08:29:49;;;;;;;25.00;3.83;;;;;;;;;;4992670;28;20175;-67
2024/01/27 08:32:16;;;;;;;34.92;4.72;;;;;;;;;;4985196;28;20054;-67
2024/01/27 08:34:42;;;;;;;28.70;6.22;;;;;;;;;;4998643;28;20046;-67
2024/01/27 08:37:16;;;;;;;26.48;4.28;;;;;;;;;;4987751;28;20517;-67
2024/01/27 08:39:42;;;;;;;;;;;;;;;;;;4993838;28;20042;-67
2024/01/27 08:42:08;;;;;;;24.08;5.18;;;;;;;;;;4977648;28;19918;-67
2024/01/27 08:44:34;;;;;;;29.98;4.85;;;;;;;;;;4985479;28;20049;-67
2024/01/27 08:47:00;;;;;;;29.25;5.90;;;;;;;;;;4984354;28;20500;-67
2024/01/27 08:49:27;;;;;;;36.33;4.80;;;;;;;;;;4996540;28;20038;-67
2024/01/27 08:51:54;;;;;;;35.03;5.65;;;;;;;;;;4995517;28;20038;-67
2024/01/27 08:54:21;;;;;;;34.08;6.15;;;;;;;;;;4993666;28;20557;-67
2024/01/27 08:56:47;;;;;;;30.73;5.07;;;;;;;;;;4981549;28;20046;-67
2024/01/27 08:59:13;;;;;;;36.15;5.25;;;;;;;;;;4982569;28;20431;-67
2024/01/27 09:01:39;;;;;;;33.90;6.20;;;;;;;;;;4995119;28;20104;-67
2024/01/27 09:04:06;;;;;;;33.85;5.32;;;;;;;;;;4995722;28;20092;-67
2024/01/27 09:06:32;;;;;;;38.92;6.13;;;;;;;;;;4998699;28;20128;-68
2024/01/27 09:08:58;;;;;;;37.00;5.60;;;;;;;;;;4968011;28;20458;-67
2024/01/27 09:11:27;;;;;;;41.20;8.00;;;;;;;;;;4988503;28;20048;-67
2024/01/27 09:13:53;;;;;;;30.95;6.68;;;;;;;;;;4993644;28;20509;-67
2024/01/27 09:16:19;;;;;;;36.17;7.70;;;;;;;;;;4988468;28;20041;-67
2024/01/27 09:18:46;;;;;;;42.20;6.55;;;;;;;;;;4987854;28;20492;-67
2024/01/27 09:21:12;;;;;;;36.60;5.70;;;;;;;;;;5001783;28;20034;-67
2024/01/27 09:23:38;;;;;;;33.40;8.27;;;;;;;;;;4989976;28;20049;-68
2024/01/27 09:26:05;;;;;;;46.40;7.53;;;;;;;;;;4988636;28;20042;-68
2024/01/27 09:28:31;;;;;;;32.28;6.25;;;;;;;;;;5003261;28;20050;-67
2024/01/27 09:30:58;;;;;;;35.85;6.22;;;;;;;;;;4995222;28;20100;-67
2024/01/27 09:33:24;;;;;;;40.88;6.70;;;;;;;;;;5004409;28;20061;-67
2024/01/27 09:35:50;;;;;;;41.72;8.63;;;;;;;;;;4972776;28;20136;-67
2024/01/27 09:38:17;;;;;;;37.33;7.35;;;;;;;;;;4991131;28;20129;-67
2024/01/27 09:40:44;;;;;;;30.60;7.25;;;;;;;;;;4985043;28;20042;-67
2024/01/27 09:43:14;;;;;;;43.58;8.38;;;;;;;;;;4991253;28;20132;-67
2024/01/27 09:45:40;;;;;;;27.33;6.60;;;;;;;;;;5005230;28;20078;-67
2024/01/27 09:48:08;;;;;;;39.15;6.18;;;;;;;;;;4990773;28;20049;-67
2024/01/27 09:50:34;;;;;;;39.58;7.25;;;;;;;;;;4990610;28;20048;-67
2024/01/27 09:53:01;;;;;;;38.25;7.18;;;;;;;;;;4997428;28;20048;-68
2024/01/27 09:55:28;;;;;;;32.13;7.53;;;;;;;;;;4989568;28;20077;-68
2024/01/27 09:57:54;;;;;;;35.65;8.23;;;;;;;;;;4988984;28;20042;-68
2024/01/27 10:00:21;;;;;;;33.10;6.85;;;;;;;;;;4992604;28;20046;-68
2024/01/27 10:02:48;;;;;;;31.33;6.32;;;;;;;;;;4985312;28;20073;-68
2024/01/27 10:05:14;;;;;;;33.97;6.13;;;;;;;;;;5003391;28;20049;-68
2024/01/27 10:07:41;;;;;;;25.95;5.13;;;;;;;;;;4989472;28;20086;-68
2024/01/27 10:10:07;;;;;;;29.55;5.40;;;;;;;;;;4971886;28;20100;-68
2024/01/27 10:12:38;;;;;;;33.25;6.18;;;;;;;;;;5000165;28;20049;-68
2024/01/27 10:15:05;;;;;;;34.55;6.35;;;;;;;;;;4990155;28;20046;-68
2024/01/27 10:17:36;;;;;;;43.45;8.65;;;;;;;;;;4988671;28;20049;-67
2024/01/27 10:20:04;;;;;;;33.08;6.60;;;;;;;;;;4979349;28;20089;-66
2024/01/27 10:22:37;;;;;;;29.33;5.50;;;;;;;;;;4983279;28;20065;-65
2024/01/27 10:25:04;;;;;;;;;;;;;;;;;;4989084;28;20397;-66
2024/01/27 10:27:30;;;;;;;23.90;4.85;;;;;;;;;;4989094;28;19918;-66
2024/01/27 10:29:56;;;;;;;26.33;5.32;;;;;;;;;;5002789;28;20494;-66
2024/01/27 10:32:23;;;;;;;35.40;5.57;;;;;;;;;;4987790;28;20127;-65
2024/01/27 10:34:50;;;;;;;27.65;6.30;;;;;;;;;;5001199;28;20407;-65
2024/01/27 10:37:24;;;;;;;26.50;6.00;;;;;;;;;;5006228;28;20405;-66
2024/01/27 10:39:50;;;;;;;;;;;;;;;;;;4989849;28;20077;-68
2024/01/27 10:42:17;;;;;;;25.70;6.60;;;;;;;;;;4972249;28;19928;-67
2024/01/27 10:44:44;;;;;;;26.27;5.38;;;;;;;;;;4990517;28;20049;-67
2024/01/27 10:47:13;;;;;;;24.50;4.97;;;;;;;;;;4981495;28;20042;-67
2024/01/27 10:49:42;;;;;;;27.55;5.90;;;;;;;;;;4990221;28;20446;-67
2024/01/27 10:52:11;;;;;;;30.27;5.60;;;;;;;;;;4989330;28;20039;-67
2024/01/27 10:54:39;;;;;;;30.58;5.68;;;;;;;;;;4984850;28;21465;-67
2024/01/27 10:57:05;;;;;;;32.60;5.13;;;;;;;;;;5001594;28;20053;-67
2024/01/27 10:59:32;;;;;;;23.35;5.55;;;;;;;;;;4987586;28;20560;-67
2024/01/27 11:01:58;;;;;;;24.95;5.57;;;;;;;;;;4994944;28;20721;-67
2024/01/27 11:04:25;;;;;;;25.92;4.95;;;;;;;;;;4984297;28;20045;-67
2024/01/27 11:06:52;;;;;;;30.52;5.10;;;;;;;;;;4993103;28;20056;-67
2024/01/27 11:09:18;;;;;;;29.45;5.07;;;;;;;;;;4981480;28;20050;-68
2024/01/27 11:11:45;;;;;;;28.98;6.43;;;;;;;;;;4984267;28;20046;-69
2024/01/27 11:14:12;;;;;;;37.58;6.15;;;;;;;;;;4994424;28;20156;-67
2024/01/27 11:16:43;;;;;;;23.10;5.30;;;;;;;;;;4982555;28;20508;-67
2024/01/27 11:19:11;;;;;;;26.67;5.68;;;;;;;;;;4993685;28;20407;-67
2024/01/27 11:21:37;;;;;;;24.98;4.40;;;;;;;;;;4977868;28;20094;-67
2024/01/27 11:24:14;;;;;;;25.02;5.43;;;;;;;;;;4985278;28;20629;-67
2024/01/27 11:26:41;;;;;;;24.20;4.43;;;;;;;;;;4985437;28;20073;-67
2024/01/27 11:29:19;;;;;;;23.23;4.88;;;;;;;;;;4992787;28;20108;-67
2024/01/27 11:31:45;;;;;;;25.25;5.95;;;;;;;;;;4992749;28;20096;-67
2024/01/27 11:34:16;;;;;;;29.83;5.30;;;;;;;;;;4985584;28;20046;-67
2024/01/27 11:36:42;;;;;;;26.85;5.30;;;;;;;;;;4985838;28;20054;-68
2024/01/27 11:39:23;;;;;;;24.23;4.20;;;;;;;;;;4986228;28;20404;-67
2024/01/27 11:41:53;;;;;;;27.50;4.93;;;;;;;;;;4975899;28;20156;-67
2024/01/27 11:44:20;;;;;;;27.80;4.50;;;;;;;;;;4961072;28;20053;-68
2024/01/27 11:46:46;;;;;;;29.35;4.50;;;;;;;;;;4994257;28;20053;-67
2024/01/27 11:49:17;;;;;;;26.65;4.93;;;;;;;;;;4997740;28;20046;-75
2024/01/27 11:51:44;;;;;;;19.75;4.03;;;;;;;;;;4988563;28;20312;-67
2024/01/27 11:54:10;;;;;;;28.27;4.40;;;;;;;;;;4999983;28;20057;-67
2024/01/27 11:56:36;;;;;;;21.67;4.57;;;;;;;;;;4986431;28;20482;-67
2024/01/27 11:59:03;;;;;;;23.58;4.45;;;;;;;;;;5006770;28;20160;-67
2024/01/27 12:01:29;;;;;;;31.20;4.55;;;;;;;;;;4987005;28;20034;-66
2024/01/27 12:03:55;;;;;;;21.65;4.72;;;;;;;;;;4987739;28;20056;-67
2024/01/27 12:06:22;;;;;;;25.42;3.97;;;;;;;;;;4985914;28;20051;-67
2024/01/27 12:08:48;;;;;;;23.02;4.70;;;;;;;;;;4992663;28;20417;-67
2024/01/27 12:11:15;;;;;;;16.60;4.10;;;;;;;;;;4968771;28;20046;-67
2024/01/27 12:13:41;;;;;;;23.33;4.50;;;;;;;;;;4988550;28;20038;-67
2024/01/27 12:16:08;;;;;;;23.17;4.50;;;;;;;;;;4992798;28;20049;-67
2024/01/27 12:18:35;;;;;;;23.52;4.57;;;;;;;;;;5000529;28;20136;-67
2024/01/27 12:21:01;;;;;;;20.65;4.68;;;;;;;;;;4989955;28;20069;-67
2024/01/27 12:23:27;;;;;;;17.10;4.10;;;;;;;;;;5008008;28;20053;-67
2024/01/27 12:25:55;;;;;;;26.10;5.07;;;;;;;;;;5010245;28;20042;-67
2024/01/27 12:28:22;;;;;;;25.38;5.47;;;;;;;;;;4992327;28;20111;-67
2024/01/27 12:30:49;;;;;;;23.52;4.93;;;;;;;;;;4996858;28;20466;-67
2024/01/27 12:33:17;;;;;;;25.80;5.93;;;;;;;;;;4990692;28;20108;-67
2024/01/27 12:35:43;;;;;;;16.35;3.30;;;;;;;;;;4974677;28;20043;-67
2024/01/27 12:38:10;;;;;;;22.10;5.43;;;;;;;;;;5009995;28;20405;-67
2024/01/27 12:40:38;;;;;;;19.73;3.47;;;;;;;;;;4990050;28;20049;-67
2024/01/27 12:43:04;;;;;;;22.27;4.38;;;;;;;;;;4994140;28;20410;-67
2024/01/27 12:45:33;;;;;;;21.67;4.22;;;;;;;;;;4992642;28;20056;-67
2024/01/27 12:47:59;;;;;;;20.83;5.18;;;;;;;;;;5008219;28;20049;-67
2024/01/27 12:50:26;;;;;;;20.80;4.18;;;;;;;;;;5003975;28;20083;-67
2024/01/27 12:52:52;;;;;;;18.52;4.28;;;;;;;;;;5005929;28;20042;-67
2024/01/27 12:55:18;;;;;;;25.45;4.88;;;;;;;;;;4995083;28;20049;-67
2024/01/27 12:57:44;;;;;;;22.65;4.60;;;;;;;;;;4994619;28;20063;-67
2024/01/27 13:00:11;;;;;;;22.55;4.43;;;;;;;;;;5006225;28;20046;-67
2024/01/27 13:02:37;;;;;;;24.77;4.82;;;;;;;;;;4977955;28;20046;-67
2024/01/27 13:05:04;;;;;;;23.38;4.50;;;;;;;;;;4996122;28;20490;-67
2024/01/27 13:07:30;;;;;;;19.45;3.58;;;;;;;;;;4994092;28;20042;-67
2024/01/27 13:09:56;;;;;;;24.00;6.70;;;;;;;;;;4995527;28;20038;-67
2024/01/27 13:12:23;;;;;;;23.13;4.47;;;;;;;;;;4996455;28;20041;-67
2024/01/27 13:14:49;;;;;;;22.30;4.95;;;;;;;;;;4992504;28;20041;-67
2024/01/27 13:17:15;;;;;;;20.77;4.07;;;;;;;;;;4994036;28;20211;-67
2024/01/27 13:19:42;;;;;;;28.10;4.65;;;;;;;;;;4996635;28;20474;-67
2024/01/27 13:22:08;;;;;;;17.95;3.88;;;;;;;;;;4987162;28;20063;-67
2024/01/27 13:24:35;;;;;;;19.50;4.07;;;;;;;;;;4986797;28;20065;-67
2024/01/27 13:27:02;;;;;;;18.67;3.70;;;;;;;;;;4985677;28;20046;-67
2024/01/27 13:29:28;;;;;;;20.70;4.35;;;;;;;;;;4988041;28;20124;-67
2024/01/27 13:31:54;;;;;;;19.60;3.63;;;;;;;;;;5000785;28;20065;-67
2024/01/27 13:34:21;;;;;;;20.38;3.90;;;;;;;;;;4992432;28;21784;-67
2024/01/27 13:36:47;;;;;;;28.58;5.28;;;;;;;;;;4995980;28;20046;-68
2024/01/27 13:39:13;;;;;;;22.25;4.00;;;;;;;;;;4990559;28;20569;-67
2024/01/27 13:41:40;;;;;;;20.42;4.13;;;;;;;;;;5001884;28;20389;-66
2024/01/27 13:44:06;;;;;;;18.58;4.20;;;;;;;;;;4992542;28;20097;-67
2024/01/27 13:46:32;;;;;;;24.42;4.00;;;;;;;;;;4999327;28;20041;-67
2024/01/27 13:48:58;;;;;;;21.20;3.47;;;;;;;;;;4994446;28;20489;-68
2024/01/27 13:51:25;;;;;;;21.65;3.90;;;;;;;;;;5003190;28;20498;-67
2024/01/27 13:53:51;;;;;;;22.00;4.72;;;;;;;;;;5006826;28;20033;-68
2024/01/27 13:56:17;;;;;;;23.33;4.38;;;;;;;;;;5006794;28;20516;-67
2024/01/27 13:58:43;;;;;;;17.33;3.00;;;;;;;;;;4995332;28;20054;-67
2024/01/27 14:01:10;;;;;;;23.45;3.83;;;;;;;;;;5003911;28;20125;-67
2024/01/27 14:03:36;;;;;;;23.60;3.70;;;;;;;;;;5002069;28;20105;-68
2024/01/27 14:06:03;;;;;;;21.83;3.58;;;;;;;;;;4984663;28;20049;-68
2024/01/27 14:08:29;;;;;;;26.33;4.68;;;;;;;;;;4979477;28;20434;-68
2024/01/27 14:10:55;;;;;;;21.13;3.70;;;;;;;;;;4978956;28;20141;-68
2024/01/27 14:13:22;;;;;;;27.23;4.05;;;;;;;;;;4998708;28;20162;-68
2024/01/27 14:15:48;;;;;;;26.88;3.35;;;;;;;;;;4989029;28;20045;-68
2024/01/27 14:18:20;;;;;;;19.95;4.13;;;;;;;;;;4986541;28;21787;-68
2024/01/27 14:20:47;;;;;;;20.58;4.03;;;;;;;;;;4987521;28;20057;-68
2024/01/27 14:23:14;;;;;;;25.83;4.10;;;;;;;;;;4984195;28;20062;-68
2024/01/27 14:25:40;;;;;;;23.20;3.95;;;;;;;;;;4984002;28;20042;-68
2024/01/27 14:28:09;;;;;;;19.48;3.35;;;;;;;;;;4977834;28;20086;-68